Time;durP1;ratioP1;P1;durP2;ratioP2;P2;SDS_P1;SDS_P2;PMS_P1;PMS_P2;Temp;Humidity;BMP_temperature;BMP_pressure;BME280_temperature;BME280_humidity;BME280_pressure;Samples;Min_cycle;Max_cycle;Signal;HPM_P1;HPM_P2
2023/03/14 00:00:33;;;;;;;13.80;5.70;;;11.90;99.90;;;;;;4933122;29;20036;-73
2023/03/14 00:02:59;;;;;;;14.15;6.10;;;12.00;99.90;;;;;;4910521;29;20032;-73
2023/03/14 00:05:25;;;;;;;14.48;5.95;;;12.00;99.90;;;;;;4914659;29;20402;-73
2023/03/14 00:07:51;;;;;;;11.10;5.25;;;12.00;99.90;;;;;;4917266;29;20042;-73
2023/03/14 00:10:18;;;;;;;13.93;4.68;;;12.10;99.90;;;;;;4933888;29;20051;-73
2023/03/14 00:12:44;;;;;;;13.35;5.20;;;12.10;99.90;;;;;;4946306;29;20032;-73
2023/03/14 00:15:11;;;;;;;13.98;5.05;;;12.10;99.90;;;;;;4952003;28;20028;-74
2023/03/14 00:17:37;;;;;;;13.68;5.35;;;12.10;99.90;;;;;;4937036;29;20469;-73
2023/03/14 00:20:05;;;;;;;13.25;5.30;;;12.00;99.90;;;;;;4920673;29;20066;-73
2023/03/14 00:22:31;;;;;;;10.77;5.20;;;12.00;99.90;;;;;;4932604;29;20386;-73
2023/03/14 00:24:57;;;;;;;11.60;5.32;;;12.00;99.90;;;;;;4934321;29;20043;-73
2023/03/14 00:27:23;;;;;;;9.05;5.53;;;12.00;99.90;;;;;;4934737;29;20024;-73
2023/03/14 00:29:49;;;;;;;9.13;5.15;;;12.00;99.90;;;;;;4934364;29;20032;-73
2023/03/14 00:32:15;;;;;;;7.82;5.07;;;11.90;99.90;;;;;;4934355;28;20393;-73
2023/03/14 00:34:42;;;;;;;8.38;5.22;;;12.00;99.90;;;;;;4934308;29;20039;-73
2023/03/14 00:37:08;;;;;;;8.30;5.50;;;12.00;99.90;;;;;;4933887;29;20027;-73
2023/03/14 00:39:34;;;;;;;7.60;5.57;;;12.00;99.90;;;;;;4934292;29;20484;-73
2023/03/14 00:42:00;;;;;;;9.93;5.38;;;12.00;99.90;;;;;;4934232;29;20036;-73
2023/03/14 00:44:26;;;;;;;7.72;5.22;;;12.00;99.90;;;;;;4934276;29;20496;-73
2023/03/14 00:46:52;;;;;;;8.00;4.90;;;12.00;99.90;;;;;;4937904;29;20031;-73
2023/03/14 00:49:18;;;;;;;10.60;5.15;;;12.00;99.90;;;;;;4953811;29;20381;-73
2023/03/14 00:51:44;;;;;;;8.60;5.00;;;12.00;99.90;;;;;;4953046;29;20034;-73
2023/03/14 00:54:10;;;;;;;10.15;5.45;;;12.00;99.90;;;;;;4934389;29;20444;-73
2023/03/14 00:56:36;;;;;;;9.35;5.32;;;12.00;99.90;;;;;;4937602;29;20044;-73
2023/03/14 00:59:03;;;;;;;9.55;5.22;;;12.00;99.90;;;;;;4937614;29;20052;-73
2023/03/14 01:01:29;;;;;;;9.77;5.20;;;12.10;99.90;;;;;;4937345;28;20394;-73
2023/03/14 01:03:55;;;;;;;7.95;5.35;;;12.10;99.90;;;;;;4946466;29;20042;-73
2023/03/14 01:06:26;;;;;;;8.70;5.30;;;12.10;99.90;;;;;;4939008;28;20396;-73
2023/03/14 01:08:52;;;;;;;7.90;5.55;;;12.10;99.90;;;;;;4938350;29;20377;-73
2023/03/14 01:11:21;;;;;;;8.50;5.57;;;12.10;99.90;;;;;;4927673;29;20042;-73
2023/03/14 01:13:47;;;;;;;10.05;5.72;;;12.10;99.90;;;;;;4941190;29;20031;-73
2023/03/14 01:16:14;;;;;;;8.57;5.55;;;12.10;99.90;;;;;;4943318;28;20043;-73
2023/03/14 01:18:43;;;;;;;7.45;5.97;;;12.10;99.90;;;;;;4947561;29;20036;-73
2023/03/14 01:21:11;;;;;;;13.63;6.28;;;12.10;99.90;;;;;;4938575;29;20038;-73
2023/03/14 01:23:37;;;;;;;10.30;5.95;;;12.10;99.90;;;;;;4944686;29;20049;-73
2023/03/14 01:26:03;;;;;;;9.80;6.22;;;12.20;99.90;;;;;;4944456;29;20026;-73
2023/03/14 01:28:30;;;;;;;8.82;7.35;;;12.20;99.90;;;;;;4955290;29;20035;-73
2023/03/14 01:30:56;;;;;;;9.50;7.07;;;12.10;99.90;;;;;;4954930;28;20027;-73
2023/03/14 01:33:22;;;;;;;11.27;7.03;;;12.20;99.90;;;;;;4956474;29;20539;-73
2023/03/14 01:35:50;;;;;;;10.70;6.63;;;12.20;99.90;;;;;;4923256;29;20046;-73
2023/03/14 01:38:16;;;;;;;10.75;6.75;;;12.20;99.90;;;;;;4935842;29;20032;-73
2023/03/14 01:40:45;;;;;;;16.10;8.60;;;12.20;99.90;;;;;;4935381;29;20035;-73
2023/03/14 01:43:18;;;;;;;13.43;7.30;;;12.10;99.90;;;;;;4935561;29;20028;-73
2023/03/14 01:46:05;;;;;;;9.38;7.15;;;12.10;99.90;;;;;;4919656;29;20039;-74
2023/03/14 01:48:59;;;;;;;12.25;8.23;;;12.20;99.90;;;;;;4937167;29;20034;-73
2023/03/14 01:51:32;;;;;;;10.70;6.75;;;12.20;99.90;;;;;;4928003;29;20499;-74
2023/03/14 01:54:10;;;;;;;11.80;6.93;;;12.20;99.90;;;;;;4945594;29;20035;-73
2023/03/14 01:56:37;;;;;;;16.98;8.85;;;12.20;99.90;;;;;;4935608;29;20028;-73
2023/03/14 01:59:04;;;;;;;8.13;6.57;;;12.20;99.90;;;;;;4920147;29;20389;-73
2023/03/14 02:01:30;;;;;;;7.20;6.60;;;12.20;99.90;;;;;;4919192;29;20036;-73
2023/03/14 02:03:57;;;;;;;9.23;7.70;;;12.20;99.90;;;;;;4936858;29;20369;-73
2023/03/14 02:06:26;;;;;;;10.00;6.00;;;12.20;99.90;;;;;;4933245;29;20373;-73
2023/03/14 02:08:52;;;;;;;9.52;6.75;;;12.20;99.90;;;;;;4918782;29;20358;-73
2023/03/14 02:11:18;;;;;;;8.38;6.30;;;12.10;99.90;;;;;;4918524;29;20059;-73
2023/03/14 02:13:44;;;;;;;8.27;6.95;;;12.10;99.90;;;;;;4955744;29;20365;-73
2023/03/14 02:16:11;;;;;;;12.15;5.90;;;12.20;99.90;;;;;;4955477;28;20050;-73
2023/03/14 02:18:37;;;;;;;7.35;6.68;;;12.20;99.90;;;;;;4937877;28;20043;-73
2023/03/14 02:21:19;;;;;;;6.80;5.93;;;12.20;99.90;;;;;;4935339;29;20035;-73
2023/03/14 02:23:53;;;;;;;9.93;7.82;;;12.20;99.90;;;;;;4935238;29;20470;-73
2023/03/14 02:26:26;;;;;;;6.72;6.28;;;12.10;99.90;;;;;;4945959;29;20036;-73
2023/03/14 02:28:53;;;;;;;7.30;6.57;;;12.00;99.90;;;;;;4935898;29;20027;-73
2023/03/14 02:31:21;;;;;;;7.07;6.45;;;12.00;99.90;;;;;;4934679;28;20493;-73
2023/03/14 02:33:47;;;;;;;5.32;4.82;;;12.00;99.90;;;;;;4919858;29;20477;-73
2023/03/14 02:36:13;;;;;;;7.07;6.45;;;12.00;99.90;;;;;;4935094;29;20024;-73
2023/03/14 02:38:51;;;;;;;6.88;6.38;;;11.90;99.90;;;;;;4911977;29;20032;-73
2023/03/14 02:41:18;;;;;;;8.25;7.70;;;11.80;99.90;;;;;;4920692;29;20036;-73
2023/03/14 02:43:44;;;;;;;8.13;7.63;;;11.70;99.90;;;;;;4918497;29;20032;-73
2023/03/14 02:46:14;;;;;;;7.28;6.68;;;11.70;99.90;;;;;;4935611;28;20039;-73
2023/03/14 02:48:41;;;;;;;8.45;7.80;;;11.60;99.90;;;;;;4935121;29;20020;-73
2023/03/14 02:51:07;;;;;;;8.60;7.93;;;11.60;99.90;;;;;;4934701;29;20039;-73
2023/03/14 02:53:34;;;;;;;8.18;7.57;;;11.60;99.90;;;;;;4934548;29;20034;-74
2023/03/14 02:56:01;;;;;;;7.90;7.28;;;11.50;99.90;;;;;;4902955;29;20050;-73
2023/03/14 02:58:27;;;;;;;12.40;11.45;;;11.60;99.90;;;;;;4935119;29;20043;-72
2023/03/14 03:00:53;;;;;;;9.50;8.55;;;11.50;99.90;;;;;;4934399;29;20035;-73
2023/03/14 03:03:19;;;;;;;6.20;5.80;;;11.50;99.90;;;;;;4925458;29;20421;-73
2023/03/14 03:05:52;;;;;;;6.22;5.80;;;11.40;99.90;;;;;;4915670;29;20039;-73
2023/03/14 03:08:19;;;;;;;6.82;6.15;;;11.50;99.90;;;;;;4913257;29;20042;-73
2023/03/14 03:10:45;;;;;;;8.75;5.78;;;11.40;99.90;;;;;;4918690;29;20058;-73
2023/03/14 03:13:11;;;;;;;5.53;4.97;;;11.40;99.90;;;;;;4949395;28;20043;-73
2023/03/14 03:15:37;;;;;;;6.78;6.25;;;11.40;99.90;;;;;;4954081;28;20039;-74
2023/03/14 03:18:03;;;;;;;8.57;8.07;;;11.40;99.90;;;;;;4953429;28;20035;-73
2023/03/14 03:20:30;;;;;;;7.65;7.20;;;11.40;99.90;;;;;;4953523;29;20028;-74
2023/03/14 03:22:56;;;;;;;8.40;7.90;;;11.40;99.90;;;;;;4933791;29;20047;-73
2023/03/14 03:25:22;;;;;;;6.00;4.65;;;11.50;99.90;;;;;;4937903;29;20380;-73
2023/03/14 03:27:48;;;;;;;5.55;5.15;;;11.30;99.90;;;;;;4937321;29;20039;-73
2023/03/14 03:30:14;;;;;;;4.90;4.45;;;11.30;99.90;;;;;;4935032;28;20050;-74
2023/03/14 03:32:40;;;;;;;5.85;5.30;;;11.30;99.90;;;;;;4935268;29;20027;-73
2023/03/14 03:35:07;;;;;;;5.13;4.70;;;11.20;99.90;;;;;;4934098;29;20047;-73
2023/03/14 03:37:33;;;;;;;7.68;5.13;;;11.20;99.90;;;;;;4933880;29;20469;-73
2023/03/14 03:40:00;;;;;;;9.13;6.50;;;11.20;99.90;;;;;;4914244;29;20050;-73
2023/03/14 03:42:27;;;;;;;7.43;6.30;;;11.10;99.90;;;;;;4914149;29;20686;-73
2023/03/14 03:44:53;;;;;;;6.68;4.65;;;11.10;99.90;;;;;;4933541;29;20035;-74
2023/03/14 03:47:19;;;;;;;5.22;4.55;;;11.10;99.90;;;;;;4933535;29;20031;-74
2023/03/14 03:49:45;;;;;;;6.47;3.80;;;11.10;99.90;;;;;;4935082;29;20035;-74
2023/03/14 03:52:11;;;;;;;8.18;5.20;;;11.00;99.90;;;;;;4934722;29;20027;-73
2023/03/14 03:54:37;;;;;;;6.80;4.47;;;11.00;99.90;;;;;;4933923;29;20043;-73
2023/03/14 03:57:03;;;;;;;7.65;4.30;;;10.90;99.90;;;;;;4932609;29;20036;-73
2023/03/14 03:59:29;;;;;;;7.75;3.95;;;10.90;99.90;;;;;;4933871;29;20035;-73
2023/03/14 04:01:55;;;;;;;7.28;3.95;;;10.80;99.90;;;;;;4933264;28;20039;-73
2023/03/14 04:04:22;;;;;;;5.03;4.25;;;10.80;99.90;;;;;;4916516;29;20036;-73
2023/03/14 04:06:48;;;;;;;6.35;4.57;;;10.80;99.90;;;;;;4914561;29;20032;-73
2023/03/14 04:09:14;;;;;;;6.60;5.03;;;10.80;99.90;;;;;;4915903;29;20394;-73
2023/03/14 04:11:41;;;;;;;9.82;4.35;;;10.80;99.90;;;;;;4928224;29;20048;-73
2023/03/14 04:14:07;;;;;;;13.18;6.90;;;10.70;99.90;;;;;;4933372;29;20036;-73
2023/03/14 04:16:33;;;;;;;8.98;3.90;;;10.80;99.90;;;;;;4901888;29;20032;-73
2023/03/14 04:19:00;;;;;;;9.13;3.95;;;10.80;99.90;;;;;;4934803;29;20516;-73
2023/03/14 04:21:26;;;;;;;9.63;4.50;;;10.80;99.90;;;;;;4933979;29;20032;-73
2023/03/14 04:23:52;;;;;;;10.68;4.47;;;10.70;99.90;;;;;;4934817;29;20044;-73
2023/03/14 04:26:19;;;;;;;9.00;4.50;;;10.70;99.90;;;;;;4928338;29;20039;-73
2023/03/14 04:28:45;;;;;;;10.60;4.40;;;10.80;99.90;;;;;;4953953;28;20027;-73
2023/03/14 04:31:13;;;;;;;6.88;3.53;;;10.80;99.90;;;;;;4957148;28;20055;-73
2023/03/14 04:33:39;;;;;;;13.18;4.60;;;10.80;99.90;;;;;;4956465;29;20023;-73
2023/03/14 04:36:06;;;;;;;9.05;4.38;;;10.70;99.90;;;;;;4944326;29;20074;-73
2023/03/14 04:38:32;;;;;;;9.35;4.10;;;10.70;99.90;;;;;;4936531;29;20035;-73
2023/03/14 04:40:59;;;;;;;12.35;4.30;;;10.70;99.90;;;;;;4937495;29;20039;-73
2023/03/14 04:43:25;;;;;;;6.38;3.63;;;10.60;99.90;;;;;;4935287;29;20036;-74
2023/03/14 04:45:55;;;;;;;8.00;3.90;;;10.50;99.90;;;;;;4936433;28;20047;-74
2023/03/14 04:48:21;;;;;;;8.70;3.80;;;10.50;99.90;;;;;;4936032;29;20043;-74
2023/03/14 04:50:47;;;;;;;8.63;3.80;;;10.50;99.90;;;;;;4937493;29;20040;-73
2023/03/14 04:53:14;;;;;;;10.73;4.25;;;10.40;99.90;;;;;;4920306;29;20036;-73
2023/03/14 04:55:40;;;;;;;8.25;4.03;;;10.40;99.90;;;;;;4921213;29;20517;-74
2023/03/14 04:58:06;;;;;;;14.88;3.92;;;10.40;99.90;;;;;;4936716;29;20036;-73
2023/03/14 05:00:32;;;;;;;13.27;4.43;;;10.40;99.90;;;;;;4920547;29;20028;-73
2023/03/14 05:02:58;;;;;;;12.55;4.15;;;10.30;99.90;;;;;;4933641;29;20032;-73
2023/03/14 05:05:24;;;;;;;8.80;3.75;;;10.30;99.90;;;;;;4936495;29;20039;-74
2023/03/14 05:07:51;;;;;;;14.05;4.25;;;10.30;99.90;;;;;;4936162;29;20054;-74
2023/03/14 05:10:17;;;;;;;9.48;4.53;;;10.30;99.90;;;;;;4937138;29;20063;-74
2023/03/14 05:12:43;;;;;;;11.55;4.22;;;10.20;99.90;;;;;;4945319;29;20576;-74
2023/03/14 05:15:09;;;;;;;9.00;4.13;;;10.10;99.90;;;;;;4935907;28;20063;-74
2023/03/14 05:17:35;;;;;;;9.45;3.78;;;10.20;99.90;;;;;;4936614;29;20031;-74
2023/03/14 05:20:07;;;;;;;9.73;4.30;;;10.20;99.90;;;;;;4920615;29;20055;-74
2023/03/14 05:22:33;;;;;;;14.90;4.85;;;10.10;99.90;;;;;;4945329;29;20027;-74
2023/03/14 05:24:59;;;;;;;12.18;4.65;;;10.10;99.90;;;;;;4942273;29;20028;-74
2023/03/14 05:27:26;;;;;;;11.85;4.07;;;10.10;99.90;;;;;;4945509;29;20484;-74
2023/03/14 05:29:52;;;;;;;13.43;4.30;;;10.10;99.90;;;;;;4947512;29;20031;-74
2023/03/14 05:32:18;;;;;;;14.13;3.97;;;10.10;99.90;;;;;;4942247;28;20040;-74
2023/03/14 05:34:44;;;;;;;11.82;4.10;;;10.10;99.90;;;;;;4935769;29;20054;-74
2023/03/14 05:37:10;;;;;;;11.15;4.07;;;10.10;99.90;;;;;;4937229;29;20036;-74
2023/03/14 05:39:36;;;;;;;15.13;3.88;;;10.10;99.90;;;;;;4955228;29;20046;-74
2023/03/14 05:42:02;;;;;;;8.43;3.88;;;10.10;99.90;;;;;;4956455;28;20026;-74
2023/03/14 05:44:28;;;;;;;13.88;4.53;;;10.10;99.90;;;;;;4940265;29;20062;-74
2023/03/14 05:46:54;;;;;;;10.75;4.80;;;10.10;99.90;;;;;;4935882;29;20109;-74
2023/03/14 05:49:20;;;;;;;13.32;4.72;;;10.10;99.90;;;;;;4936861;29;20031;-74
2023/03/14 05:51:47;;;;;;;12.18;4.28;;;10.00;99.90;;;;;;4918877;29;20036;-74
2023/03/14 05:54:13;;;;;;;14.00;4.65;;;10.00;99.90;;;;;;4936785;29;20058;-73
2023/03/14 05:56:39;;;;;;;13.18;4.55;;;10.00;99.90;;;;;;4956238;29;20027;-74
2023/03/14 05:59:07;;;;;;;6.82;3.45;;;10.00;99.90;;;;;;4939045;29;20082;-74
2023/03/14 06:01:33;;;;;;;16.02;4.05;;;10.00;99.90;;;;;;4955779;28;20377;-74
2023/03/14 06:03:59;;;;;;;14.75;4.32;;;10.10;99.90;;;;;;4939586;29;20024;-74
2023/03/14 06:06:25;;;;;;;15.25;4.30;;;10.10;99.90;;;;;;4935592;29;20027;-74
2023/03/14 06:08:51;;;;;;;11.82;4.40;;;10.10;99.90;;;;;;4936730;29;20046;-74
2023/03/14 06:11:17;;;;;;;15.48;4.57;;;10.10;99.90;;;;;;4935881;29;20051;-74
2023/03/14 06:13:43;;;;;;;17.77;5.07;;;10.20;99.90;;;;;;4928595;29;20532;-74
2023/03/14 06:16:09;;;;;;;14.07;5.00;;;10.10;99.90;;;;;;4935314;28;20416;-74
2023/03/14 06:18:36;;;;;;;10.60;3.95;;;10.00;99.90;;;;;;4934079;29;20483;-74
2023/03/14 06:21:02;;;;;;;10.68;3.90;;;10.00;99.90;;;;;;4934724;29;20044;-74
2023/03/14 06:23:30;;;;;;;15.45;4.60;;;9.80;99.90;;;;;;4935691;29;20394;-74
2023/03/14 06:25:56;;;;;;;11.13;4.20;;;9.80;99.90;;;;;;4943861;29;20030;-74
2023/03/14 06:28:22;;;;;;;15.07;3.88;;;9.80;99.90;;;;;;4938573;29;20032;-74
2023/03/14 06:30:48;;;;;;;12.98;4.53;;;9.80;99.90;;;;;;4954750;28;20121;-74
2023/03/14 06:33:14;;;;;;;14.63;4.35;;;9.60;99.90;;;;;;4953646;29;20038;-74
2023/03/14 06:35:40;;;;;;;11.32;4.82;;;9.60;99.90;;;;;;4950016;29;20078;-74
2023/03/14 06:38:06;;;;;;;8.18;3.72;;;9.60;99.90;;;;;;4933989;29;20040;-74
2023/03/14 06:40:32;;;;;;;8.82;4.13;;;9.60;99.90;;;;;;4934992;29;20036;-74
2023/03/14 06:42:58;;;;;;;18.92;5.10;;;9.60;99.90;;;;;;4935302;29;20031;-74
2023/03/14 06:45:25;;;;;;;16.92;4.03;;;9.60;99.90;;;;;;4934809;28;20039;-75
2023/03/14 06:47:51;;;;;;;14.52;4.28;;;9.60;99.90;;;;;;4918919;29;20039;-75
2023/03/14 06:50:17;;;;;;;9.63;3.92;;;9.60;99.90;;;;;;4935841;29;20039;-75
2023/03/14 06:52:47;;;;;;;15.60;4.40;;;9.70;99.90;;;;;;4932415;29;20142;-74
2023/03/14 06:55:14;;;;;;;9.70;4.43;;;9.70;99.90;;;;;;4935751;29;20147;-74
2023/03/14 06:57:41;;;;;;;8.73;4.45;;;9.70;99.90;;;;;;4934248;29;20386;-74
2023/03/14 07:00:08;;;;;;;15.57;4.13;;;9.60;99.90;;;;;;4933077;28;20044;-74
2023/03/14 07:02:34;;;;;;;15.20;5.15;;;9.60;99.90;;;;;;4918132;29;20031;-74
2023/03/14 07:05:00;;;;;;;7.68;4.20;;;9.60;99.90;;;;;;4934443;29;20040;-74
2023/03/14 07:07:27;;;;;;;10.95;4.32;;;9.60;99.90;;;;;;4934497;29;20512;-74
2023/03/14 07:09:53;;;;;;;19.35;5.00;;;9.60;99.90;;;;;;4934556;29;20056;-74
2023/03/14 07:12:19;;;;;;;14.30;4.55;;;9.70;99.90;;;;;;4940624;29;20038;-74
2023/03/14 07:14:45;;;;;;;19.02;4.82;;;9.70;99.90;;;;;;4935052;29;20401;-75
2023/03/14 07:17:11;;;;;;;17.15;4.78;;;9.80;99.90;;;;;;4933523;29;20103;-75
2023/03/14 07:19:37;;;;;;;15.10;4.63;;;9.90;99.90;;;;;;4931213;29;20031;-75
2023/03/14 07:22:07;;;;;;;16.10;4.38;;;10.00;99.90;;;;;;4933461;29;20473;-74
2023/03/14 07:24:33;;;;;;;10.90;4.55;;;10.10;99.90;;;;;;4933639;29;20036;-74
2023/03/14 07:26:59;;;;;;;9.68;4.40;;;10.30;99.90;;;;;;4931069;29;20031;-74
2023/03/14 07:29:25;;;;;;;13.82;4.97;;;10.40;99.90;;;;;;4925760;29;20046;-75
2023/03/14 07:31:51;;;;;;;14.85;4.30;;;10.60;99.90;;;;;;4948594;28;20043;-75
2023/03/14 07:34:17;;;;;;;18.95;4.75;;;10.70;99.90;;;;;;4930590;29;20044;-74
2023/03/14 07:36:43;;;;;;;10.30;5.03;;;10.80;99.90;;;;;;4934764;29;20047;-75
2023/03/14 07:39:09;;;;;;;16.23;4.95;;;11.00;99.90;;;;;;4934844;29;20509;-75
2023/03/14 07:41:35;;;;;;;14.15;4.82;;;11.10;99.90;;;;;;4932550;29;20412;-75
2023/03/14 07:44:01;;;;;;;15.48;5.45;;;11.20;99.90;;;;;;4934292;29;20035;-75
2023/03/14 07:46:27;;;;;;;14.93;4.75;;;11.40;99.90;;;;;;4917291;29;20043;-75
2023/03/14 07:48:54;;;;;;;10.25;4.60;;;11.60;99.90;;;;;;4934538;29;20027;-75
2023/03/14 07:51:20;;;;;;;16.52;4.53;;;11.70;99.90;;;;;;4925737;29;20043;-75
2023/03/14 07:53:46;;;;;;;12.50;4.72;;;11.70;99.90;;;;;;4925848;29;20409;-75
2023/03/14 07:56:12;;;;;;;11.15;4.03;;;11.80;99.90;;;;;;4933247;29;20409;-74
2023/03/14 07:58:38;;;;;;;12.60;4.43;;;11.90;99.90;;;;;;4934736;29;20023;-75
2023/03/14 08:01:04;;;;;;;19.67;5.15;;;11.90;99.90;;;;;;4930227;28;20042;-75
2023/03/14 08:03:30;;;;;;;10.27;4.30;;;11.80;99.90;;;;;;4932953;29;20024;-75
2023/03/14 08:05:56;;;;;;;17.08;4.93;;;11.80;99.90;;;;;;4933488;29;20492;-75
2023/03/14 08:08:23;;;;;;;15.38;5.25;;;11.80;99.90;;;;;;4933200;29;20035;-74
2023/03/14 08:10:49;;;;;;;14.55;4.57;;;11.90;99.90;;;;;;4931691;29;20058;-75
2023/03/14 08:13:15;;;;;;;10.50;4.55;;;12.00;99.90;;;;;;4948601;29;20035;-75
2023/03/14 08:15:41;;;;;;;12.88;5.43;;;12.20;99.90;;;;;;4946675;28;20044;-75
2023/03/14 08:18:07;;;;;;;17.30;5.50;;;12.30;99.90;;;;;;4932724;29;20043;-75
2023/03/14 08:20:33;;;;;;;10.95;4.70;;;12.20;99.90;;;;;;4932270;29;20515;-76
2023/03/14 08:23:00;;;;;;;11.65;5.65;;;12.30;99.90;;;;;;4934764;29;20031;-76
2023/03/14 08:25:26;;;;;;;14.50;5.50;;;12.50;99.90;;;;;;4934346;29;20031;-78
2023/03/14 08:27:53;;;;;;;12.27;5.07;;;12.60;99.90;;;;;;4917150;29;20028;-78
2023/03/14 08:30:19;;;;;;;11.52;5.53;;;12.70;99.90;;;;;;4924704;28;20043;-78
2023/03/14 08:32:45;;;;;;;20.13;5.90;;;12.80;99.90;;;;;;4902201;29;20051;-78
2023/03/14 08:35:12;;;;;;;13.88;5.50;;;12.90;99.90;;;;;;4915271;29;20074;-76
2023/03/14 08:37:38;;;;;;;13.13;4.95;;;13.00;99.90;;;;;;4932843;29;20035;-81
2023/03/14 08:40:09;;;;;;;13.38;5.47;;;13.10;99.90;;;;;;4926900;29;20040;-78
2023/03/14 08:42:36;;;;;;;16.13;5.40;;;12.80;99.90;;;;;;4915131;29;20036;-78
2023/03/14 08:45:03;;;;;;;11.77;5.65;;;12.80;99.90;;;;;;4933059;28;20386;-78
2023/03/14 08:47:29;;;;;;;12.43;4.63;;;12.80;99.90;;;;;;4914215;29;20046;-77
2023/03/14 08:49:55;;;;;;;16.73;5.07;;;12.70;99.90;;;;;;4928405;29;20046;-78
2023/03/14 08:52:21;;;;;;;11.32;5.32;;;12.70;99.90;;;;;;4933198;29;20059;-77
2023/03/14 08:54:47;;;;;;;12.68;4.95;;;12.80;99.90;;;;;;4917450;29;20058;-78
2023/03/14 08:57:13;;;;;;;9.05;5.18;;;12.90;99.90;;;;;;4931302;29;20040;-78
2023/03/14 08:59:39;;;;;;;9.50;5.20;;;12.90;99.90;;;;;;4917541;29;20036;-78
2023/03/14 09:02:06;;;;;;;12.07;5.50;;;13.00;99.90;;;;;;4932299;29;20040;-77
2023/03/14 09:04:32;;;;;;;13.30;6.03;;;13.10;99.90;;;;;;4913969;29;20036;-76
2023/03/14 09:06:59;;;;;;;15.55;5.97;;;13.10;99.90;;;;;;4916548;29;20038;-76
2023/03/14 09:09:26;;;;;;;13.82;6.15;;;13.20;99.90;;;;;;4932790;29;20063;-76
2023/03/14 09:11:53;;;;;;;13.27;5.97;;;13.30;99.90;;;;;;4937518;29;20015;-76
2023/03/14 09:14:19;;;;;;;9.23;6.03;;;13.30;99.90;;;;;;4929530;29;20039;-74
2023/03/14 09:16:45;;;;;;;10.10;5.70;;;13.40;99.90;;;;;;4939270;29;20040;-74
2023/03/14 09:19:11;;;;;;;12.25;6.82;;;13.60;99.90;;;;;;4936490;29;20036;-77
2023/03/14 09:21:38;;;;;;;12.23;6.47;;;13.80;99.90;;;;;;4934079;29;20034;-83
2023/03/14 09:24:05;;;;;;;13.52;5.28;;;13.60;99.90;;;;;;4937396;29;20031;-78
2023/03/14 09:26:31;;;;;;;12.05;5.68;;;13.40;99.90;;;;;;4938326;29;20050;-80
2023/03/14 09:28:57;;;;;;;11.00;4.75;;;13.50;99.90;;;;;;4935129;29;20054;-80
2023/03/14 09:31:23;;;;;;;12.05;5.65;;;13.60;99.90;;;;;;4935716;28;20044;-79
2023/03/14 09:33:49;;;;;;;12.52;5.30;;;13.70;99.90;;;;;;4935452;29;20785;-79
2023/03/14 09:36:16;;;;;;;11.88;5.90;;;13.70;99.90;;;;;;4917585;29;20055;-74
2023/03/14 09:38:42;;;;;;;9.15;5.97;;;13.90;99.90;;;;;;4937639;29;20031;-78
2023/03/14 09:41:23;;;;;;;14.43;6.03;;;13.70;99.90;;;;;;4919106;29;20050;-78
2023/03/14 09:43:50;;;;;;;9.40;5.93;;;13.70;99.90;;;;;;4919092;29;20058;-78
2023/03/14 09:46:16;;;;;;;12.07;5.43;;;13.60;99.90;;;;;;4901176;29;20032;-77
2023/03/14 09:48:43;;;;;;;8.65;6.60;;;13.60;99.90;;;;;;4918388;29;20040;-79
2023/03/14 09:51:14;;;;;;;9.98;6.00;;;13.70;99.90;;;;;;4926067;29;20031;-78
2023/03/14 09:53:45;;;;;;;6.80;5.38;;;13.80;99.90;;;;;;4904249;29;20058;-78
2023/03/14 09:56:28;;;;;;;9.43;6.82;;;13.90;99.90;;;;;;4935027;29;20050;-77
2023/03/14 09:58:55;;;;;;;8.73;5.85;;;14.20;99.90;;;;;;4921025;29;20031;-78
2023/03/14 10:01:26;;;;;;;13.55;6.40;;;14.50;99.90;;;;;;4918605;29;20046;-75
2023/03/14 10:03:57;;;;;;;8.32;5.35;;;14.60;99.90;;;;;;4936889;29;20034;-76
2023/03/14 10:06:27;;;;;;;13.05;5.50;;;14.60;99.90;;;;;;4934808;29;20046;-76
2023/03/14 10:08:54;;;;;;;12.27;5.50;;;14.60;99.90;;;;;;4918776;29;20035;-77
2023/03/14 10:11:20;;;;;;;14.38;6.18;;;14.50;99.90;;;;;;4934196;29;20043;-75
2023/03/14 10:14:10;;;;;;;12.10;6.00;;;14.30;99.90;;;;;;4936173;29;20500;-76
2023/03/14 10:16:41;;;;;;;10.38;5.68;;;14.00;99.90;;;;;;4935075;28;20461;-76
2023/03/14 10:19:10;;;;;;;11.75;5.35;;;13.80;99.90;;;;;;4933552;29;20050;-76
2023/03/14 10:21:41;;;;;;;9.23;5.63;;;14.10;99.90;;;;;;4917152;29;20032;-76
2023/03/14 10:24:20;;;;;;;8.20;5.50;;;14.00;99.90;;;;;;4916061;29;20061;-75
2023/03/14 10:26:53;;;;;;;9.13;5.15;;;13.90;99.90;;;;;;4930971;29;20027;-76
2023/03/14 10:29:21;;;;;;;13.43;5.28;;;14.00;99.90;;;;;;4917016;29;20478;-76
2023/03/14 10:31:53;;;;;;;11.50;5.47;;;14.10;99.90;;;;;;4930136;28;20035;-76
2023/03/14 10:34:30;;;;;;;9.32;4.75;;;14.30;99.90;;;;;;4935593;29;20039;-76
2023/03/14 10:37:15;;;;;;;8.55;4.75;;;14.60;99.90;;;;;;4936402;29;20047;-76
2023/03/14 10:39:46;;;;;;;10.68;5.25;;;14.70;99.90;;;;;;4919703;29;20032;-76
2023/03/14 10:42:29;;;;;;;5.93;4.75;;;14.70;99.90;;;;;;4918796;29;20039;-76
2023/03/14 10:44:57;;;;;;;13.85;5.30;;;14.50;99.90;;;;;;4923842;29;20031;-76
2023/03/14 10:47:24;;;;;;;15.77;5.03;;;14.50;99.90;;;;;;4916578;29;20051;-76
2023/03/14 10:49:50;;;;;;;6.78;4.78;;;14.60;99.90;;;;;;4934427;29;20393;-76
2023/03/14 10:52:27;;;;;;;10.93;4.90;;;14.80;99.90;;;;;;4935691;29;20023;-76
2023/03/14 10:55:01;;;;;;;10.93;5.50;;;15.10;99.90;;;;;;4934375;29;20381;-76
2023/03/14 10:57:27;;;;;;;7.05;5.25;;;15.20;99.90;;;;;;4914493;29;20044;-74
2023/03/14 10:59:53;;;;;;;11.40;5.30;;;15.10;99.90;;;;;;4933367;29;20023;-76
2023/03/14 11:02:45;;;;;;;7.60;4.95;;;14.90;99.90;;;;;;4918046;29;20404;-76
2023/03/14 11:05:32;;;;;;;11.23;4.82;;;15.10;99.90;;;;;;4919312;29;20044;-76
2023/03/14 11:08:20;;;;;;;9.90;5.18;;;15.30;99.90;;;;;;4933545;29;20031;-76
2023/03/14 11:10:48;;;;;;;6.68;5.43;;;15.40;99.90;;;;;;4934607;29;20048;-77
2023/03/14 11:13:33;;;;;;;10.35;5.10;;;15.50;99.90;;;;;;4916382;29;20028;-76
2023/03/14 11:16:16;;;;;;;7.15;4.88;;;15.60;99.90;;;;;;4933994;28;20047;-76
2023/03/14 11:18:51;;;;;;;8.48;4.70;;;15.50;99.90;;;;;;4933447;29;20482;-76
2023/03/14 11:21:37;;;;;;;9.25;5.03;;;15.20;99.90;;;;;;4934121;29;20052;-76
2023/03/14 11:24:24;;;;;;;8.77;4.80;;;15.10;99.90;;;;;;4934410;29;20042;-76
2023/03/14 11:27:05;;;;;;;7.85;4.80;;;15.20;99.90;;;;;;4948449;29;20031;-76
2023/03/14 11:29:42;;;;;;;7.57;5.13;;;15.20;99.90;;;;;;4918768;29;20054;-76
2023/03/14 11:32:34;;;;;;;7.32;6.10;;;15.20;99.90;;;;;;4932933;28;20303;-76
2023/03/14 11:35:04;;;;;;;7.93;5.45;;;15.10;99.90;;;;;;4926894;29;20038;-75
2023/03/14 11:37:34;;;;;;;7.38;5.20;;;14.80;99.90;;;;;;4918163;29;20047;-76
2023/03/14 11:40:13;;;;;;;10.27;4.47;;;14.60;99.90;;;;;;4933591;29;20043;-76
2023/03/14 11:42:41;;;;;;;10.98;5.22;;;14.70;99.90;;;;;;4930137;29;20466;-76
2023/03/14 11:45:17;;;;;;;7.13;5.18;;;14.70;99.90;;;;;;4932913;28;20477;-76
2023/03/14 11:47:43;;;;;;;7.03;5.18;;;14.80;99.90;;;;;;4916480;29;20080;-76
2023/03/14 11:50:24;;;;;;;9.45;5.10;;;15.10;99.90;;;;;;4916136;29;20050;-77
2023/03/14 11:52:58;;;;;;;8.60;5.60;;;15.30;99.90;;;;;;4933648;29;20027;-76
2023/03/14 11:55:28;;;;;;;7.68;4.57;;;15.30;99.90;;;;;;4906336;29;20032;-76
2023/03/14 11:57:58;;;;;;;9.10;4.93;;;15.30;99.90;;;;;;4929718;29;20047;-76
2023/03/14 12:00:25;;;;;;;7.70;4.68;;;15.50;99.90;;;;;;4916028;28;20042;-76
2023/03/14 12:03:13;;;;;;;9.60;4.95;;;15.40;99.90;;;;;;4929356;29;20034;-76
2023/03/14 12:05:56;;;;;;;7.65;5.03;;;15.60;99.90;;;;;;4912342;29;20043;-76
2023/03/14 12:08:29;;;;;;;6.60;5.45;;;15.90;99.90;;;;;;4917056;29;20787;-76
2023/03/14 12:11:19;;;;;;;6.15;4.45;;;16.00;99.90;;;;;;4934383;29;20056;-77
2023/03/14 12:13:48;;;;;;;6.78;5.53;;;15.90;99.90;;;;;;4921405;29;20063;-77
2023/03/14 12:16:35;;;;;;;6.05;5.00;;;16.10;99.90;;;;;;4918962;29;20051;-77
2023/03/14 12:19:37;;;;;;;5.95;5.15;;;16.30;99.90;;;;;;4934084;29;20489;-77
2023/03/14 12:22:20;;;;;;;7.50;5.28;;;16.40;99.90;;;;;;4924626;29;20531;-76
2023/03/14 12:24:51;;;;;;;8.18;4.63;;;16.30;99.90;;;;;;4929146;29;20043;-76
2023/03/14 12:27:43;;;;;;;6.53;4.32;;;16.20;99.90;;;;;;4924605;29;20043;-76
2023/03/14 12:30:35;;;;;;;5.90;5.38;;;16.10;99.90;;;;;;4911390;29;20032;-76
2023/03/14 12:33:29;;;;;;;7.60;5.50;;;16.30;99.90;;;;;;4915252;29;20038;-76
2023/03/14 12:36:00;;;;;;;7.85;5.07;;;16.20;99.90;;;;;;4912302;29;20047;-76
2023/03/14 12:38:52;;;;;;;7.30;5.47;;;16.20;99.90;;;;;;4915482;29;20428;-76
2023/03/14 12:41:28;;;;;;;6.10;5.40;;;16.20;99.90;;;;;;4899611;29;20071;-76
2023/03/14 12:43:55;;;;;;;5.07;4.57;;;15.90;99.90;;;;;;4916409;29;20386;-76
2023/03/14 12:46:25;;;;;;;6.28;5.50;;;15.60;99.90;;;;;;4912509;29;20047;-74
2023/03/14 12:48:57;;;;;;;9.73;5.28;;;15.60;99.90;;;;;;4914072;29;20039;-74
2023/03/14 12:51:35;;;;;;;5.95;5.43;;;15.60;99.90;;;;;;4933096;29;20159;-74